Time;durP1;ratioP1;P1;durP2;ratioP2;P2;SDS_P1;SDS_P2;PMS_P1;PMS_P2;Temp;Humidity;BMP_temperature;BMP_pressure;BME280_temperature;BME280_humidity;BME280_pressure;Samples;Min_cycle;Max_cycle;Signal;HPM_P1;HPM_P2
2021/07/19 00:00:33;;;;;;;17.63;16.53;;;16.50;99.90;;;;;;5061447;28;20796;-71
2021/07/19 00:03:01;;;;;;;17.50;16.20;;;16.50;99.90;;;;;;5065329;28;20465;-73
2021/07/19 00:05:30;;;;;;;18.00;16.37;;;16.50;99.90;;;;;;5065775;28;20463;-71
2021/07/19 00:07:57;;;;;;;18.17;16.50;;;16.40;99.90;;;;;;5065322;28;20455;-72
2021/07/19 00:10:25;;;;;;;17.43;16.33;;;16.30;99.90;;;;;;5061357;28;20551;-72
2021/07/19 00:12:53;;;;;;;18.50;17.33;;;16.30;99.90;;;;;;5058271;28;20482;-71
2021/07/19 00:15:23;;;;;;;18.60;17.10;;;16.30;99.90;;;;;;5065478;28;20554;-70
2021/07/19 00:17:51;;;;;;;17.40;16.20;;;16.30;99.90;;;;;;5064474;28;20464;-72
2021/07/19 00:20:19;;;;;;;17.47;16.27;;;16.40;99.90;;;;;;5062624;28;21031;-72
2021/07/19 00:22:48;;;;;;;17.00;15.80;;;16.50;99.90;;;;;;5063708;28;20470;-71
2021/07/19 00:25:17;;;;;;;17.23;15.60;;;16.50;99.90;;;;;;5058329;28;20478;-70
2021/07/19 00:27:46;;;;;;;21.40;17.00;;;16.50;99.90;;;;;;5064539;28;20490;-74
2021/07/19 00:30:16;;;;;;;17.73;16.30;;;16.60;99.90;;;;;;5060916;28;20573;-70
2021/07/19 00:32:44;;;;;;;17.30;15.80;;;16.50;99.90;;;;;;5060875;28;20962;-73
2021/07/19 00:35:12;;;;;;;16.97;15.77;;;16.50;99.90;;;;;;5065423;28;20470;-70
2021/07/19 00:37:40;;;;;;;16.67;15.20;;;16.50;99.90;;;;;;5062735;28;20475;-70
2021/07/19 00:40:11;;;;;;;18.07;16.47;;;16.50;99.90;;;;;;5058122;28;20546;-71
2021/07/19 00:42:40;;;;;;;17.50;16.00;;;16.50;99.90;;;;;;5055715;28;20476;-71
2021/07/19 00:45:11;;;;;;;16.97;15.67;;;16.40;99.90;;;;;;5064779;28;20470;-74
2021/07/19 00:47:38;;;;;;;17.37;16.17;;;16.40;99.90;;;;;;5065547;28;20665;-71
2021/07/19 00:50:07;;;;;;;17.93;16.30;;;16.40;99.90;;;;;;5064601;28;20838;-71
2021/07/19 00:52:35;;;;;;;18.20;17.00;;;16.40;99.90;;;;;;5066157;28;20548;-73
2021/07/19 00:55:05;;;;;;;17.20;16.03;;;16.40;99.90;;;;;;5060949;28;20459;-71
2021/07/19 00:57:35;;;;;;;18.80;17.10;;;16.40;99.90;;;;;;5057327;28;20456;-73
2021/07/19 01:00:08;;;;;;;18.40;17.00;;;16.40;99.90;;;;;;5061286;28;20494;-71
2021/07/19 01:02:36;;;;;;;18.60;17.10;;;16.40;99.90;;;;;;5064629;28;21057;-72
2021/07/19 01:05:05;;;;;;;18.87;17.07;;;16.30;99.90;;;;;;5065046;28;20560;-71
2021/07/19 01:07:34;;;;;;;18.33;16.93;;;16.30;99.90;;;;;;5060653;28;21004;-73
2021/07/19 01:10:01;;;;;;;18.67;17.30;;;16.20;99.90;;;;;;5062735;28;21011;-71
2021/07/19 01:12:30;;;;;;;19.47;17.97;;;16.20;99.90;;;;;;5062005;28;20479;-70
2021/07/19 01:14:58;;;;;;;19.40;17.90;;;16.20;99.90;;;;;;5059978;28;20459;-71
2021/07/19 01:17:25;;;;;;;19.23;17.63;;;16.20;99.90;;;;;;5057990;28;20962;-71
2021/07/19 01:19:54;;;;;;;19.23;17.60;;;16.20;99.90;;;;;;5063560;28;20930;-71
2021/07/19 01:23:05;;;;;;;19.40;17.87;;;16.20;99.90;;;;;;5058822;28;20854;-71
2021/07/19 01:25:55;;;;;;;18.80;17.50;;;16.20;99.90;;;;;;5061887;28;20478;-73
2021/07/19 01:28:38;;;;;;;19.43;17.43;;;16.20;99.90;;;;;;5059056;28;20463;-71
2021/07/19 01:31:11;;;;;;;18.50;17.00;;;16.20;99.90;;;;;;5054423;28;20464;-70
2021/07/19 01:33:42;;;;;;;19.63;17.90;;;16.10;99.90;;;;;;5063380;28;20462;-73
2021/07/19 01:36:10;;;;;;;19.53;17.93;;;16.10;99.90;;;;;;5053496;28;20476;-70
2021/07/19 01:38:39;;;;;;;20.30;18.70;;;16.00;99.90;;;;;;5063489;28;20480;-71
2021/07/19 01:41:07;;;;;;;20.77;19.10;;;15.90;99.90;;;;;;5061329;28;20609;-71
2021/07/19 01:43:36;;;;;;;20.07;18.40;;;15.80;99.90;;;;;;5063760;28;20459;-73
2021/07/19 01:46:04;;;;;;;20.17;18.40;;;15.80;99.90;;;;;;5060301;28;20462;-72
2021/07/19 01:48:33;;;;;;;20.40;18.90;;;15.70;99.90;;;;;;5062388;28;20841;-72
2021/07/19 01:51:02;;;;;;;19.70;18.43;;;15.70;99.90;;;;;;5058068;28;20463;-72
2021/07/19 01:53:30;;;;;;;22.00;20.20;;;15.60;99.90;;;;;;5054449;28;20988;-71
2021/07/19 01:55:58;;;;;;;21.27;19.67;;;15.60;99.90;;;;;;5057070;28;20460;-71
2021/07/19 01:58:27;;;;;;;22.10;20.40;;;15.50;99.90;;;;;;5061255;28;20463;-71
2021/07/19 02:00:57;;;;;;;23.67;21.60;;;15.40;99.90;;;;;;5061014;28;20890;-71
2021/07/19 02:03:24;;;;;;;22.43;20.50;;;15.40;99.90;;;;;;5061501;28;20951;-71
2021/07/19 02:05:53;;;;;;;21.33;19.40;;;15.30;99.90;;;;;;5059756;28;20471;-71
2021/07/19 02:08:22;;;;;;;21.10;19.40;;;15.20;99.90;;;;;;5062653;28;22577;-73
2021/07/19 02:10:50;;;;;;;22.73;20.87;;;15.10;99.90;;;;;;5063745;28;20531;-71
2021/07/19 02:13:19;;;;;;;22.70;20.90;;;15.00;99.90;;;;;;5061932;28;20961;-71
2021/07/19 02:15:47;;;;;;;23.33;21.53;;;14.90;99.90;;;;;;5057467;28;20958;-72
2021/07/19 02:18:16;;;;;;;23.27;20.77;;;14.90;99.90;;;;;;5061000;28;20901;-71
2021/07/19 02:20:45;;;;;;;21.40;19.63;;;14.80;99.90;;;;;;5058240;28;20456;-72
2021/07/19 02:23:12;;;;;;;20.87;19.27;;;14.60;99.90;;;;;;5055985;28;20494;-72
2021/07/19 02:25:42;;;;;;;22.27;20.40;;;14.50;99.90;;;;;;5060475;28;20474;-72
2021/07/19 02:28:11;;;;;;;22.47;20.97;;;14.50;99.90;;;;;;5063493;28;20490;-72
2021/07/19 02:30:40;;;;;;;22.70;20.97;;;14.40;99.90;;;;;;5061623;28;20546;-72
2021/07/19 02:33:09;;;;;;;22.23;20.33;;;14.40;99.90;;;;;;5060364;28;20993;-72
2021/07/19 02:35:41;;;;;;;23.93;21.83;;;14.40;99.90;;;;;;5054158;28;20464;-72
2021/07/19 02:38:11;;;;;;;22.77;20.73;;;14.40;99.90;;;;;;5054128;28;20481;-71
2021/07/19 02:40:39;;;;;;;22.70;20.60;;;14.40;99.90;;;;;;5056130;28;20470;-72
2021/07/19 02:43:09;;;;;;;22.83;19.80;;;14.50;99.90;;;;;;5063843;28;20475;-71
2021/07/19 02:45:38;;;;;;;22.70;20.97;;;14.40;99.90;;;;;;5063491;28;20787;-72
2021/07/19 02:48:06;;;;;;;21.80;19.60;;;14.50;99.90;;;;;;5063057;28;20497;-72
2021/07/19 02:50:35;;;;;;;22.37;20.57;;;14.40;99.90;;;;;;5061984;28;20459;-72
2021/07/19 02:53:05;;;;;;;22.60;20.40;;;14.40;99.90;;;;;;5058570;28;20826;-72
2021/07/19 02:55:34;;;;;;;21.97;20.17;;;14.40;99.90;;;;;;5062976;28;20464;-72
2021/07/19 02:58:02;;;;;;;22.87;20.77;;;14.40;99.90;;;;;;5061549;28;20513;-73
2021/07/19 03:00:30;;;;;;;24.67;22.17;;;14.40;99.90;;;;;;5062037;28;20497;-72
2021/07/19 03:02:59;;;;;;;26.23;20.50;;;14.40;99.90;;;;;;5065044;28;20463;-71
2021/07/19 03:05:29;;;;;;;22.47;20.47;;;14.40;99.90;;;;;;5061457;28;20493;-72
2021/07/19 03:07:59;;;;;;;22.40;20.50;;;14.30;99.90;;;;;;5059158;28;20488;-71
2021/07/19 03:10:30;;;;;;;19.43;17.97;;;14.20;99.90;;;;;;5060144;28;20786;-72
2021/07/19 03:13:00;;;;;;;20.90;18.83;;;14.10;99.90;;;;;;5061238;28;20463;-72
2021/07/19 03:15:31;;;;;;;21.80;19.53;;;13.90;99.90;;;;;;5057660;28;20447;-71
2021/07/19 03:17:59;;;;;;;21.37;19.73;;;13.70;99.90;;;;;;5063631;28;20823;-72
2021/07/19 03:20:27;;;;;;;28.50;21.17;;;13.60;99.90;;;;;;5060249;28;20463;-72
2021/07/19 03:22:56;;;;;;;24.70;22.13;;;13.50;99.90;;;;;;5066157;28;20459;-72
2021/07/19 03:25:28;;;;;;;23.80;21.50;;;13.60;99.90;;;;;;5058298;28;20832;-73
2021/07/19 03:27:56;;;;;;;23.63;21.57;;;13.70;99.90;;;;;;5067150;28;20498;-73
2021/07/19 03:30:25;;;;;;;23.50;21.30;;;13.80;99.90;;;;;;5067812;28;20466;-72
2021/07/19 03:32:52;;;;;;;22.80;20.77;;;13.80;99.90;;;;;;5061602;28;20473;-72
2021/07/19 03:35:22;;;;;;;22.80;20.77;;;13.80;99.90;;;;;;5059326;28;20468;-72
2021/07/19 03:37:51;;;;;;;24.07;22.20;;;13.70;99.90;;;;;;5065807;28;20482;-72
2021/07/19 03:40:21;;;;;;;23.90;21.57;;;13.70;99.90;;;;;;5063994;28;20454;-72
2021/07/19 03:42:50;;;;;;;24.00;21.80;;;13.60;99.90;;;;;;5059187;28;20533;-72
2021/07/19 03:45:19;;;;;;;25.00;22.70;;;13.60;99.90;;;;;;5065141;28;20463;-71
2021/07/19 03:47:49;;;;;;;24.90;22.60;;;13.60;99.90;;;;;;5058911;28;20519;-73
2021/07/19 03:50:16;;;;;;;25.40;22.97;;;13.50;99.90;;;;;;5065087;28;20863;-71
2021/07/19 03:52:46;;;;;;;23.60;21.47;;;13.60;99.90;;;;;;5061418;28;20788;-72
2021/07/19 03:55:15;;;;;;;24.10;22.30;;;13.60;99.90;;;;;;5063778;28;20466;-72
2021/07/19 03:57:43;;;;;;;27.73;24.37;;;13.60;99.90;;;;;;5059018;28;20926;-71
2021/07/19 04:00:14;;;;;;;24.43;22.23;;;13.60;99.90;;;;;;5062291;28;20465;-71
2021/07/19 04:02:42;;;;;;;24.23;22.13;;;13.60;99.90;;;;;;5065222;28;20475;-72
2021/07/19 04:05:14;;;;;;;24.80;22.37;;;13.50;99.90;;;;;;5064700;28;20487;-71
2021/07/19 04:07:44;;;;;;;25.67;23.47;;;13.50;99.90;;;;;;5058327;28;20486;-71
2021/07/19 04:10:13;;;;;;;24.43;22.50;;;13.60;99.90;;;;;;5063891;28;20949;-71
2021/07/19 04:12:41;;;;;;;24.57;22.33;;;13.60;99.90;;;;;;5060902;28;20466;-71
2021/07/19 04:15:11;;;;;;;25.93;23.53;;;13.60;99.90;;;;;;5058227;28;20460;-72
2021/07/19 04:17:38;;;;;;;25.13;22.97;;;13.70;99.90;;;;;;5055442;28;20498;-71
2021/07/19 04:20:08;;;;;;;24.93;22.33;;;13.70;99.90;;;;;;5067354;28;20985;-71
2021/07/19 04:22:36;;;;;;;23.90;21.93;;;13.70;99.90;;;;;;5066389;28;21039;-71
2021/07/19 04:25:06;;;;;;;25.07;23.00;;;13.80;99.90;;;;;;5062766;28;20474;-72
2021/07/19 04:27:34;;;;;;;26.77;22.70;;;13.80;99.90;;;;;;5063120;28;20489;-72
2021/07/19 04:30:01;;;;;;;25.87;23.33;;;13.80;99.90;;;;;;5059295;28;20517;-71
2021/07/19 04:32:30;;;;;;;24.37;22.47;;;13.90;99.90;;;;;;5054799;28;20460;-71
2021/07/19 04:34:58;;;;;;;27.10;24.07;;;14.00;99.90;;;;;;5062284;28;20467;-71
2021/07/19 04:37:25;;;;;;;26.20;23.90;;;14.00;99.90;;;;;;5064543;28;20471;-72
2021/07/19 04:39:52;;;;;;;25.10;23.00;;;14.00;99.90;;;;;;5062995;28;20459;-72
2021/07/19 04:42:20;;;;;;;26.53;24.03;;;14.10;99.90;;;;;;5063045;28;20499;-71
2021/07/19 04:44:46;;;;;;;26.37;24.00;;;14.10;99.90;;;;;;5061083;28;20482;-71
2021/07/19 04:47:15;;;;;;;26.50;23.77;;;14.20;99.90;;;;;;5057597;28;20973;-71
2021/07/19 04:49:44;;;;;;;27.07;24.47;;;14.30;99.90;;;;;;5064201;28;20854;-71
2021/07/19 04:52:11;;;;;;;27.80;24.93;;;14.40;99.90;;;;;;5065498;28;20499;-71
2021/07/19 04:54:39;;;;;;;26.53;24.03;;;14.50;99.90;;;;;;5060975;28;20473;-70
2021/07/19 04:57:09;;;;;;;26.73;24.53;;;14.70;99.90;;;;;;5054626;28;20468;-71
2021/07/19 04:59:40;;;;;;;43.30;31.77;;;14.80;99.90;;;;;;5054563;28;20455;-71
2021/07/19 05:02:11;;;;;;;27.77;25.00;;;14.90;99.90;;;;;;5066291;28;20459;-70
2021/07/19 05:04:39;;;;;;;26.37;24.07;;;15.10;99.90;;;;;;5060463;28;20465;-71
2021/07/19 05:07:09;;;;;;;27.83;25.17;;;15.20;99.90;;;;;;5067231;28;20451;-70
2021/07/19 05:09:40;;;;;;;27.97;25.17;;;15.30;99.90;;;;;;5062818;28;20459;-71
2021/07/19 05:12:10;;;;;;;26.67;24.00;;;15.40;99.90;;;;;;5057508;28;20953;-70
2021/07/19 05:14:37;;;;;;;27.60;25.30;;;15.50;99.90;;;;;;5058041;28;20463;-71
2021/07/19 05:17:05;;;;;;;29.93;26.80;;;15.50;99.90;;;;;;5057022;28;20456;-70
2021/07/19 05:19:36;;;;;;;29.30;26.30;;;15.60;99.90;;;;;;5069922;28;20454;-70
2021/07/19 05:22:03;;;;;;;28.10;25.20;;;15.70;99.90;;;;;;5063139;28;20463;-69
2021/07/19 05:24:32;;;;;;;32.37;24.90;;;15.70;99.90;;;;;;5061057;28;20462;-70
2021/07/19 05:26:59;;;;;;;30.33;24.70;;;15.80;99.90;;;;;;5058229;28;20466;-70
2021/07/19 05:29:26;;;;;;;27.63;25.03;;;15.90;99.90;;;;;;5058135;28;20916;-70
2021/07/19 05:31:53;;;;;;;29.53;26.50;;;15.90;99.90;;;;;;5060496;28;20460;-70
2021/07/19 05:34:20;;;;;;;29.33;25.93;;;16.10;99.90;;;;;;5063368;28;20474;-71
2021/07/19 05:36:48;;;;;;;29.23;26.33;;;16.20;99.90;;;;;;5064178;28;20463;-70
2021/07/19 05:39:15;;;;;;;33.23;26.30;;;16.30;99.90;;;;;;5059824;28;20486;-70
2021/07/19 05:41:43;;;;;;;27.87;24.90;;;16.30;99.90;;;;;;5060001;28;20503;-70
2021/07/19 05:44:11;;;;;;;28.60;25.27;;;16.50;99.90;;;;;;5061161;28;20843;-69
2021/07/19 05:46:38;;;;;;;29.00;26.30;;;16.60;99.90;;;;;;5061033;28;20468;-70
2021/07/19 05:49:05;;;;;;;29.37;26.40;;;16.80;99.90;;;;;;5066245;28;20491;-70
2021/07/19 05:51:32;;;;;;;27.47;24.50;;;17.00;99.90;;;;;;5060009;28;20469;-71
2021/07/19 05:54:00;;;;;;;27.43;24.53;;;17.10;99.90;;;;;;5059046;28;20497;-71
2021/07/19 05:56:27;;;;;;;25.53;23.03;;;17.10;99.90;;;;;;5065042;28;20893;-71
2021/07/19 05:58:58;;;;;;;28.10;24.10;;;17.20;99.90;;;;;;5064441;28;20468;-70
2021/07/19 06:01:25;;;;;;;27.17;23.57;;;17.40;99.90;;;;;;5057451;28;20582;-71
2021/07/19 06:03:52;;;;;;;26.27;23.87;;;17.50;99.90;;;;;;5062512;28;20937;-72
2021/07/19 06:06:19;;;;;;;24.80;22.10;;;17.40;99.90;;;;;;5062258;28;20462;-71
2021/07/19 06:08:46;;;;;;;26.87;24.13;;;17.40;99.90;;;;;;5063694;28;20499;-72
2021/07/19 06:11:12;;;;;;;24.23;22.33;;;17.60;99.90;;;;;;5058158;28;21509;-71
2021/07/19 06:13:39;;;;;;;26.67;23.97;;;17.60;99.90;;;;;;5057611;28;20992;-71
2021/07/19 06:16:09;;;;;;;26.47;23.80;;;17.70;99.90;;;;;;5061890;28;20475;-73
2021/07/19 06:18:36;;;;;;;25.67;23.07;;;17.70;99.90;;;;;;5064618;28;20490;-72
2021/07/19 06:21:03;;;;;;;25.90;23.53;;;17.80;99.90;;;;;;5057155;28;20495;-72
2021/07/19 06:23:30;;;;;;;24.17;21.97;;;17.90;99.90;;;;;;5056507;28;20462;-71
2021/07/19 06:25:56;;;;;;;24.50;22.27;;;18.20;99.90;;;;;;5056556;28;20469;-71
2021/07/19 06:28:24;;;;;;;24.00;21.90;;;18.40;99.90;;;;;;5066986;28;20486;-73
2021/07/19 06:30:53;;;;;;;24.43;22.17;;;18.40;99.90;;;;;;5059464;28;20552;-72
2021/07/19 06:33:21;;;;;;;25.27;23.07;;;18.50;99.90;;;;;;5062664;28;20455;-72
2021/07/19 06:35:48;;;;;;;27.03;22.70;;;18.70;99.90;;;;;;5059196;28;20459;-71
2021/07/19 06:38:15;;;;;;;24.27;22.30;;;18.90;99.90;;;;;;5059607;28;20994;-72
2021/07/19 06:40:42;;;;;;;24.20;22.00;;;18.90;99.90;;;;;;5060828;28;20471;-70
2021/07/19 06:43:09;;;;;;;24.67;22.40;;;19.00;99.90;;;;;;5063026;28;20466;-71
2021/07/19 06:45:36;;;;;;;24.20;22.10;;;19.10;99.90;;;;;;5060641;28;20459;-71
2021/07/19 06:48:04;;;;;;;22.07;20.17;;;19.20;99.90;;;;;;5060344;28;20813;-72
2021/07/19 06:50:32;;;;;;;25.10;22.97;;;19.20;99.90;;;;;;5062361;28;20467;-71
2021/07/19 06:52:59;;;;;;;24.67;22.47;;;19.40;99.90;;;;;;5057746;28;20959;-71
2021/07/19 06:55:26;;;;;;;24.60;22.60;;;19.50;99.90;;;;;;5068261;28;20554;-72
2021/07/19 06:57:53;;;;;;;25.10;22.80;;;19.60;99.90;;;;;;5064258;28;21023;-70
2021/07/19 07:00:20;;;;;;;24.77;22.87;;;19.30;99.90;;;;;;5061759;28;20467;-72
2021/07/19 07:02:47;;;;;;;22.57;20.93;;;19.40;99.90;;;;;;5064201;28;20489;-71
2021/07/19 07:05:14;;;;;;;33.17;22.60;;;19.60;99.90;;;;;;5064260;28;20467;-73
2021/07/19 07:07:43;;;;;;;23.77;21.83;;;19.60;99.90;;;;;;5067758;28;20470;-71
2021/07/19 07:10:11;;;;;;;22.77;21.10;;;19.80;99.90;;;;;;5070911;28;20462;-70
2021/07/19 07:12:42;;;;;;;22.27;20.67;;;19.60;99.90;;;;;;5058772;28;20458;-72
2021/07/19 07:15:10;;;;;;;22.90;20.83;;;19.50;99.90;;;;;;5059789;28;21014;-71
2021/07/19 07:17:38;;;;;;;22.47;20.53;;;19.50;99.90;;;;;;5065443;28;20469;-73
2021/07/19 07:20:07;;;;;;;22.37;20.63;;;20.00;99.90;;;;;;5069266;28;20531;-71
2021/07/19 07:22:34;;;;;;;21.80;20.10;;;20.10;99.90;;;;;;5060647;28;20829;-72
2021/07/19 07:25:02;;;;;;;22.60;20.60;;;20.30;99.90;;;;;;5065126;28;20473;-71
2021/07/19 07:27:29;;;;;;;22.77;20.67;;;20.80;99.90;;;;;;5062209;28;20805;-71
2021/07/19 07:29:56;;;;;;;20.70;19.10;;;20.90;99.90;;;;;;5064704;28;20847;-72
2021/07/19 07:32:23;;;;;;;21.33;19.53;;;21.20;99.90;;;;;;5065828;28;20463;-72
2021/07/19 07:34:49;;;;;;;21.80;19.70;;;21.40;99.90;;;;;;5064478;28;20716;-73
2021/07/19 07:37:16;;;;;;;22.07;20.27;;;21.30;99.90;;;;;;5066768;28;21162;-72
2021/07/19 07:39:45;;;;;;;22.33;20.53;;;21.20;99.90;;;;;;5065769;28;20479;-71
2021/07/19 07:42:13;;;;;;;21.17;19.17;;;21.20;99.90;;;;;;5064992;28;20891;-72
2021/07/19 07:44:41;;;;;;;22.00;20.20;;;21.70;99.90;;;;;;5065804;28;20835;-71
2021/07/19 07:47:11;;;;;;;21.43;19.60;;;21.60;99.90;;;;;;5057896;28;20987;-70
2021/07/19 07:49:41;;;;;;;22.40;20.60;;;21.70;99.90;;;;;;5054379;28;20498;-72
2021/07/19 07:52:10;;;;;;;21.97;20.27;;;21.60;99.90;;;;;;5064398;28;20463;-72
2021/07/19 07:54:37;;;;;;;22.67;20.17;;;21.70;99.90;;;;;;5062973;28;20566;-73
2021/07/19 07:57:04;;;;;;;21.33;19.77;;;22.10;99.90;;;;;;5063015;28;20459;-72
2021/07/19 07:59:41;;;;;;;23.30;20.87;;;22.10;99.90;;;;;;5064023;28;20521;-71
2021/07/19 08:02:13;;;;;;;21.80;20.10;;;21.90;99.90;;;;;;5064217;28;20975;-73
2021/07/19 08:04:40;;;;;;;21.90;20.20;;;21.90;99.90;;;;;;5062689;28;20509;-73
2021/07/19 08:07:08;;;;;;;20.40;18.90;;;22.00;99.90;;;;;;5063331;28;20463;-72
2021/07/19 08:09:35;;;;;;;22.50;20.50;;;22.40;99.90;;;;;;5059281;28;20483;-73
2021/07/19 08:12:03;;;;;;;21.13;19.63;;;22.80;99.90;;;;;;5062442;28;20460;-71
2021/07/19 08:14:30;;;;;;;23.20;21.20;;;22.70;99.90;;;;;;5065361;28;20467;-72
2021/07/19 08:16:59;;;;;;;21.70;20.10;;;22.80;99.90;;;;;;5056740;28;20463;-72
2021/07/19 08:19:32;;;;;;;21.30;19.57;;;22.80;99.90;;;;;;5067400;28;20893;-72
2021/07/19 08:21:59;;;;;;;21.77;20.17;;;22.90;99.90;;;;;;5057245;28;20558;-71
2021/07/19 08:24:26;;;;;;;20.90;19.40;;;23.20;99.90;;;;;;5055281;28;20470;-73
2021/07/19 08:26:57;;;;;;;22.47;20.60;;;23.10;99.90;;;;;;5061088;28;20471;-71
2021/07/19 08:29:25;;;;;;;21.63;19.83;;;23.50;99.90;;;;;;5062168;28;20487;-71
2021/07/19 08:31:54;;;;;;;23.20;21.50;;;23.60;99.90;;;;;;5061685;28;20463;-71
2021/07/19 08:34:22;;;;;;;22.07;20.43;;;23.80;99.90;;;;;;5063974;28;20562;-71
2021/07/19 08:36:51;;;;;;;23.17;21.27;;;24.10;99.90;;;;;;5059914;28;20463;-73
2021/07/19 08:39:19;;;;;;;23.10;21.43;;;23.70;99.90;;;;;;5063130;28;20483;-71
2021/07/19 08:41:47;;;;;;;22.53;20.80;;;23.10;99.90;;;;;;5060207;28;20571;-72
2021/07/19 08:44:16;;;;;;;25.47;23.20;;;23.00;99.90;;;;;;5061941;28;20545;-71
2021/07/19 08:46:44;;;;;;;28.27;24.53;;;23.30;99.90;;;;;;5056436;28;20528;-71
2021/07/19 08:49:11;;;;;;;26.40;24.30;;;23.10;99.90;;;;;;5064439;28;20993;-71
2021/07/19 08:51:42;;;;;;;24.70;22.70;;;23.40;99.90;;;;;;5063712;28;20834;-71
2021/07/19 08:54:11;;;;;;;25.57;23.40;;;23.50;99.90;;;;;;5054649;28;20471;-73
2021/07/19 08:56:42;;;;;;;27.63;25.30;;;23.30;99.90;;;;;;5057248;28;20470;-72
2021/07/19 08:59:16;;;;;;;28.60;25.80;;;23.30;99.90;;;;;;5059254;28;20532;-71
2021/07/19 09:01:45;;;;;;;26.87;24.03;;;23.50;99.90;;;;;;5060343;28;20773;-71
2021/07/19 09:04:18;;;;;;;27.27;25.07;;;23.50;99.90;;;;;;5059883;28;21305;-74
2021/07/19 09:06:48;;;;;;;30.80;28.00;;;23.50;99.90;;;;;;5059099;28;20503;-72
2021/07/19 09:09:15;;;;;;;31.50;28.60;;;23.30;99.90;;;;;;5061204;28;20479;-74
2021/07/19 09:11:49;;;;;;;29.23;26.73;;;22.90;99.90;;;;;;5059152;28;20471;-72
2021/07/19 09:14:19;;;;;;;30.03;26.90;;;23.30;99.90;;;;;;5059440;28;20467;-71
2021/07/19 09:16:48;;;;;;;29.63;27.00;;;23.50;99.90;;;;;;5060490;28;20460;-71
2021/07/19 09:19:17;;;;;;;29.07;26.40;;;23.50;99.90;;;;;;5061446;28;20471;-71
2021/07/19 09:21:47;;;;;;;33.67;30.60;;;23.30;99.90;;;;;;5063772;28;20516;-71
2021/07/19 09:24:17;;;;;;;34.57;31.67;;;23.80;99.90;;;;;;5060522;28;20467;-74
2021/07/19 09:26:50;;;;;;;36.00;32.80;;;23.60;99.90;;;;;;5059081;28;21256;-71
2021/07/19 09:29:19;;;;;;;35.87;32.17;;;24.10;99.90;;;;;;5061524;28;20838;-71
2021/07/19 09:31:52;;;;;;;34.77;31.33;;;23.80;99.90;;;;;;5059312;28;20463;-73
2021/07/19 09:34:21;;;;;;;34.07;31.07;;;23.20;99.90;;;;;;5064140;28;20477;-74
2021/07/19 09:37:01;;;;;;;34.97;31.80;;;23.10;99.90;;;;;;5055942;28;20486;-71
2021/07/19 09:39:29;;;;;;;35.93;32.70;;;23.10;99.90;;;;;;5056753;28;20482;-72
2021/07/19 09:42:08;;;;;;;34.30;30.93;;;23.40;99.90;;;;;;5055227;28;20486;-74
2021/07/19 09:44:39;;;;;;;34.00;31.10;;;23.50;99.90;;;;;;5060906;28;20459;-72
2021/07/19 09:47:08;;;;;;;31.70;28.90;;;23.70;99.90;;;;;;5059717;28;20565;-73
2021/07/19 09:49:36;;;;;;;32.33;29.53;;;23.60;99.90;;;;;;5056711;28;20488;-70
2021/07/19 09:52:07;;;;;;;33.87;30.97;;;23.60;99.90;;;;;;5059492;28;20937;-72
2021/07/19 09:54:47;;;;;;;32.60;29.83;;;23.60;99.90;;;;;;5060710;28;20544;-71
2021/07/19 09:57:16;;;;;;;30.30;27.63;;;23.80;99.90;;;;;;5058307;28;20470;-74
2021/07/19 09:59:56;;;;;;;31.87;29.10;;;23.60;99.90;;;;;;5055807;28;20553;-71
2021/07/19 10:02:34;;;;;;;29.67;26.93;;;23.60;99.90;;;;;;5051091;28;20455;-71
2021/07/19 10:05:07;;;;;;;34.20;30.73;;;23.80;99.90;;;;;;5051331;28;20788;-73
2021/07/19 10:07:36;;;;;;;29.70;26.87;;;24.00;99.90;;;;;;5055832;28;20463;-71
2021/07/19 10:10:08;;;;;;;31.17;28.33;;;23.90;99.90;;;;;;5056818;28;20491;-72
2021/07/19 10:12:42;;;;;;;29.90;27.37;;;24.00;99.90;;;;;;5057699;28;20530;-71
2021/07/19 10:15:11;;;;;;;27.47;25.27;;;23.60;99.90;;;;;;5058424;28;20997;-72
2021/07/19 10:17:44;;;;;;;26.60;24.43;;;23.40;99.90;;;;;;5060762;28;20563;-73
2021/07/19 10:20:12;;;;;;;26.10;23.80;;;23.10;99.90;;;;;;5058868;28;20575;-73
2021/07/19 10:22:40;;;;;;;26.87;24.10;;;23.20;99.90;;;;;;5062328;28;20548;-71
2021/07/19 10:25:08;;;;;;;25.37;23.30;;;23.20;99.90;;;;;;5057310;28;20467;-70
2021/07/19 10:27:37;;;;;;;26.57;24.37;;;23.20;99.90;;;;;;5063578;28;20495;-70
2021/07/19 10:30:06;;;;;;;29.67;27.07;;;23.10;99.90;;;;;;5063818;28;20502;-71
2021/07/19 10:32:36;;;;;;;32.30;29.00;;;22.90;99.90;;;;;;5064032;28;20463;-71
2021/07/19 10:35:04;;;;;;;32.73;29.93;;;22.80;99.90;;;;;;5064355;28;20463;-74
2021/07/19 10:37:36;;;;;;;31.10;27.90;;;22.80;99.90;;;;;;5062902;28;20476;-71
2021/07/19 10:40:09;;;;;;;31.60;28.50;;;23.10;99.90;;;;;;5065065;28;20469;-74
2021/07/19 10:42:38;;;;;;;30.97;28.00;;;23.00;99.90;;;;;;5062384;28;20486;-71
2021/07/19 10:45:09;;;;;;;28.17;25.40;;;23.20;99.90;;;;;;5062199;28;20541;-71
2021/07/19 10:47:47;;;;;;;26.63;24.40;;;23.20;99.90;;;;;;5061555;28;20451;-71
2021/07/19 10:50:17;;;;;;;28.67;26.00;;;23.30;99.90;;;;;;5061654;28;20551;-73
2021/07/19 10:52:44;;;;;;;27.40;24.70;;;23.50;99.90;;;;;;5064938;28;20463;-70
2021/07/19 10:55:24;;;;;;;27.33;25.10;;;23.70;99.90;;;;;;5063641;28;20470;-72
2021/07/19 10:58:01;;;;;;;28.77;26.07;;;23.60;99.90;;;;;;5065827;28;20828;-73
2021/07/19 11:00:29;;;;;;;29.60;26.47;;;23.40;99.90;;;;;;5059674;28;20502;-72
2021/07/19 11:03:02;;;;;;;28.13;25.60;;;23.80;99.90;;;;;;5064453;28;20463;-70
2021/07/19 11:05:34;;;;;;;28.77;26.20;;;23.80;99.90;;;;;;5063947;28;20470;-71
2021/07/19 11:08:02;;;;;;;29.33;26.73;;;24.30;99.90;;;;;;5062324;28;20467;-71
2021/07/19 11:10:31;;;;;;;28.90;26.50;;;24.80;99.90;;;;;;5062279;28;20856;-70
2021/07/19 11:12:59;;;;;;;31.07;28.30;;;24.40;99.90;;;;;;5064502;28;20491;-74
2021/07/19 11:15:36;;;;;;;31.67;29.00;;;24.40;99.90;;;;;;5056225;28;20463;-71
2021/07/19 11:18:23;;;;;;;33.97;30.80;;;24.80;99.90;;;;;;5065981;28;20465;-71
2021/07/19 11:20:51;;;;;;;36.37;32.80;;;25.00;99.90;;;;;;5059063;28;20545;-73
2021/07/19 11:23:27;;;;;;;35.03;31.90;;;25.10;99.90;;;;;;5064987;28;20469;-72
2021/07/19 11:25:57;;;;;;;34.57;31.37;;;25.10;99.90;;;;;;5056188;28;20462;-72
2021/07/19 11:28:26;;;;;;;35.40;32.30;;;25.70;99.90;;;;;;5064208;28;20469;-73
2021/07/19 11:31:04;;;;;;;34.20;31.13;;;25.80;99.90;;;;;;5063375;28;20498;-72
2021/07/19 11:33:36;;;;;;;35.47;32.57;;;25.60;99.90;;;;;;5062902;28;20462;-71
2021/07/19 11:36:15;;;;;;;33.03;30.00;;;26.10;99.90;;;;;;5063300;28;20463;-71
2021/07/19 11:38:42;;;;;;;34.17;31.00;;;26.70;99.90;;;;;;5059165;28;20488;-71
2021/07/19 11:41:21;;;;;;;32.70;29.70;;;26.30;99.90;;;;;;5060991;28;20854;-71
2021/07/19 11:43:49;;;;;;;30.30;27.77;;;26.50;99.90;;;;;;5055340;28;20470;-71
2021/07/19 11:46:24;;;;;;;28.97;26.50;;;26.90;99.90;;;;;;5065184;28;20451;-72
2021/07/19 11:48:57;;;;;;;30.37;27.80;;;26.70;99.90;;;;;;5066459;28;20843;-71
2021/07/19 11:51:25;;;;;;;30.77;28.13;;;26.70;99.90;;;;;;5065403;28;20490;-71
2021/07/19 11:53:51;;;;;;;29.57;27.17;;;26.10;99.90;;;;;;5060535;28;20471;-74
2021/07/19 11:56:20;;;;;;;30.10;27.77;;;26.90;99.90;;;;;;5060379;28;20464;-71
2021/07/19 11:58:52;;;;;;;29.13;26.80;;;27.70;99.90;;;;;;5063922;28;20836;-72
2021/07/19 12:01:31;;;;;;;29.33;27.00;;;28.90;99.90;;;;;;5066073;28;20458;-75
2021/07/19 12:03:59;;;;;;;26.77;24.73;;;29.20;99.90;;;;;;5065203;28;20473;-71
2021/07/19 12:06:27;;;;;;;27.70;25.60;;;29.00;99.70;;;;;;5056157;28;20957;-74
2021/07/19 12:08:56;;;;;;;25.73;23.73;;;27.40;99.90;;;;;;5062259;28;20588;-71
2021/07/19 12:11:26;;;;;;;27.53;25.33;;;27.90;99.90;;;;;;5060527;28;20481;-71
2021/07/19 12:13:58;;;;;;;26.57;24.47;;;27.50;99.90;;;;;;5062701;28;20554;-71
2021/07/19 12:16:33;;;;;;;27.70;25.50;;;27.00;99.90;;;;;;5054518;28;20886;-71
2021/07/19 12:19:01;;;;;;;26.17;23.97;;;27.20;99.90;;;;;;5072882;28;20463;-72
2021/07/19 12:21:30;;;;;;;25.87;23.80;;;27.60;99.90;;;;;;5060096;28;21059;-70
2021/07/19 12:23:59;;;;;;;24.73;22.73;;;28.50;99.90;;;;;;5060784;28;20466;-71
2021/07/19 12:26:39;;;;;;;25.47;23.57;;;28.90;99.70;;;;;;5058358;28;20460;-71
2021/07/19 12:29:09;;;;;;;27.53;25.00;;;28.40;99.90;;;;;;5061404;28;20958;-71
2021/07/19 12:31:37;;;;;;;27.20;24.90;;;27.80;99.90;;;;;;5060991;28;20954;-71
2021/07/19 12:34:09;;;;;;;26.57;24.37;;;27.80;99.90;;;;;;5060593;28;20464;-71
2021/07/19 12:36:36;;;;;;;25.50;23.70;;;27.90;99.90;;;;;;5058785;28;21053;-71
2021/07/19 12:39:08;;;;;;;24.07;21.87;;;29.00;99.90;;;;;;5061197;28;20898;-72